Royal Romance — ZGCE4 — position and weather

sailwx.info

Track history (hours):
 
Tides and Currents Weather Stations Pressure Air Temp Water Temp Dewpoint Dewpoint Depression Visibility Wind Speed Wind Dir Waves Ship Positions

Royal Romance

Last reported at 2015-Jul-28 10:33 UTC. Time now 2015-Jul-28 15:23 UTC.
Position N 36°06' W 007°10'.

Length 93 m; draft 3.9 m.

Type: Pleasure craft. MMSI: 319084100.

Date/timePositionNaut miles runAvg speedWind from/ knotsBaromVisibWave heightAir tempDewpointWater temp
2015-Jul-28 10:33N 36°06' W 007°10'1716.0
2015-Jul-28 09:30N 36°11' W 007°30'1516.2
2015-Jul-28 08:33N 36°15' W 007°48'1616.2
2015-Jul-28 07:33N 36°19' W 008°08'6715.7
2015-Jul-28 03:17N 36°41' W 009°26'1215.7
2015-Jul-28 02:33N 36°51' W 009°33'1616.0
2015-Jul-28 01:33N 37°06' W 009°40'1616.2
2015-Jul-28 00:34N 37°22' W 009°45'1616.2
2015-Jul-27 23:34N 37°37' W 009°51'1616.4
2015-Jul-27 22:33N 37°53' W 009°55'1716.5
2015-Jul-27 21:33N 38°10' W 009°58'1716.6
2015-Jul-27 20:33N 38°26' W 010°02'1616.2
2015-Jul-27 19:33N 38°42' W 010°05'1616.2
2015-Jul-27 18:33N 38°58' W 010°05'1616.5
2015-Jul-27 17:33N 39°14' W 009°59'1716.7
2015-Jul-27 16:32N 39°30' W 009°53'679735358.5
2015-Jul-27 16:21N 01°12' E 103°50'3 4.2
2015-Jul-27 15:33N 01°15' E 103°48'1 0.0
2015-Jul-25 22:29N 01°16' E 103°49'0 0.0
2015-Jul-25 20:10N 01°16' E 103°49'0 0.0
2015-Jul-25 08:17N 01°16' E 103°49'0 0.0
2015-Jul-23 07:03N 01°16' E 103°49'1 0.3
2015-Jul-23 04:26N 01°15' E 103°48'61687065.3
2015-Jul-23 03:33N 58°49' E 005°25'616819809.6
2015-Jul-23 03:15N 01°15' E 103°48'0 0.0
2015-Jul-23 01:28N 01°15' E 103°48'6130267.5
2015-Jul-22 02:33N 54°14' E 005°06'1212.5
2015-Jul-22 01:33N 54°02' E 005°07'1312.6
2015-Jul-22 00:33N 53°50' E 004°59'1313.0
2015-Jul-21 23:32N 53°38' E 004°51'1313.1
2015-Jul-21 22:33N 53°26' E 004°42'1514.0
2015-Jul-21 21:28N 53°12' E 004°33'1314.2
2015-Jul-21 20:33N 53°00' E 004°23'1413.8
2015-Jul-21 19:33N 52°48' E 004°12'1313.4
2015-Jul-21 18:33N 52°35' E 004°07'1212.4
2015-Jul-21 17:34N 52°29' E 004°25'7 7.3
2015-Jul-21 16:34N 52°28' E 004°37'3 3.4
2015-Jul-21 15:33N 52°27' E 004°42'3 3.2
2015-Jul-21 14:33N 52°25' E 004°46'0 0.0
2015-Jul-21 13:33N 52°25' E 004°46'0 0.0
2015-Jul-21 12:30N 52°25' E 004°46'0 0.0
2015-Jul-21 11:33N 52°25' E 004°46'0 0.0
2015-Jul-21 10:33N 52°25' E 004°46'0 0.0
2015-Jul-21 09:33N 52°25' E 004°46'0 0.0
2015-Jul-21 08:33N 52°25' E 004°46'0 0.0
2015-Jul-21 07:33N 52°25' E 004°46'0 0.0
2015-Jul-21 06:33N 52°25' E 004°46'0 0.0
2015-Jul-21 05:33N 52°25' E 004°46'0 0.0
2015-Jul-21 04:33N 52°25' E 004°46'0 0.0
2015-Jul-21 03:30N 52°25' E 004°46'0 0.0
2015-Jul-21 02:33N 52°25' E 004°46'0 0.0
2015-Jul-21 01:33N 52°25' E 004°46'0 0.0
2015-Jul-21 00:33N 52°25' E 004°46'0 0.0
2015-Jul-20 23:33N 52°25' E 004°46'0 0.0
2015-Jul-20 22:33N 52°25' E 004°46'0 0.0
2015-Jul-20 21:33N 52°25' E 004°46'0 0.0
2015-Jul-20 20:33N 52°25' E 004°46'0 0.0
2015-Jul-20 19:33N 52°25' E 004°46'0 0.0
2015-Jul-20 18:33N 52°25' E 004°46'0 0.0
2015-Jul-20 17:33N 52°25' E 004°46'0 0.0
2015-Jul-20 16:33N 52°25' E 004°46'0 0.0
2015-Jul-20 15:33N 52°25' E 004°46'0 0.0
2015-Jul-20 14:33N 52°25' E 004°46'0 0.0
2015-Jul-20 13:33N 52°25' E 004°46'0 0.0
2015-Jul-20 12:30N 52°25' E 004°46'0 0.0
2015-Jul-20 11:33N 52°25' E 004°46'0 0.0
2015-Jul-20 10:33N 52°25' E 004°46'0 0.0
2015-Jul-20 09:33N 52°25' E 004°46'0 0.0
2015-Jul-20 08:33N 52°25' E 004°46'0 0.0
2015-Jul-20 07:33N 52°25' E 004°46'0 0.0
2015-Jul-20 06:33N 52°25' E 004°46'0 0.0
2015-Jul-20 05:33N 52°25' E 004°46'0 0.0
2015-Jul-20 04:33N 52°25' E 004°46'0 0.0
2015-Jul-20 03:27N 52°25' E 004°46'0 0.0
2015-Jul-20 02:33N 52°25' E 004°46'0 0.0
2015-Jul-20 01:33N 52°25' E 004°46'0 0.0
2015-Jul-20 00:33N 52°25' E 004°46'0 0.0
2015-Jul-19 23:33N 52°25' E 004°46'0 0.0
2015-Jul-19 22:33N 52°25' E 004°46'0 0.0
2015-Jul-19 21:33N 52°25' E 004°46'0 0.0
2015-Jul-19 20:33N 52°25' E 004°46'0 0.0
2015-Jul-19 19:33N 52°25' E 004°46'0 0.0
2015-Jul-19 18:33N 52°25' E 004°46'0 0.0
2015-Jul-19 17:33N 52°25' E 004°46'0 0.0
2015-Jul-19 16:33N 52°25' E 004°46'0 0.0
2015-Jul-19 15:33N 52°25' E 004°46'0 0.0
2015-Jul-19 14:33N 52°25' E 004°46'0 0.0
2015-Jul-19 13:33N 52°25' E 004°46'0 0.0
2015-Jul-19 12:33N 52°25' E 004°46'0 0.0
2015-Jul-19 11:33N 52°25' E 004°46'0 0.0
2015-Jul-19 10:33N 52°25' E 004°46'0 0.0
2015-Jul-19 09:33N 52°25' E 004°46'0 0.0
2015-Jul-19 08:33N 52°25' E 004°46'0 0.0
2015-Jul-19 07:33N 52°25' E 004°46'0 0.0
2015-Jul-19 06:27N 52°25' E 004°46'0 0.0
2015-Jul-19 05:33N 52°25' E 004°46'0 0.0
2015-Jul-19 04:33N 52°25' E 004°46'0 0.0
2015-Jul-19 00:30N 52°25' E 004°46'0 0.0
2015-Jul-18 23:33N 52°25' E 004°46'0 0.0
2015-Jul-18 22:33N 52°25' E 004°46'0 0.0
2015-Jul-18 21:33N 52°25' E 004°46'0 0.0
2015-Jul-18 20:33N 52°25' E 004°46'0 0.0
2015-Jul-18 19:33N 52°25' E 004°46'0 0.0
2015-Jul-18 18:33N 52°25' E 004°46'0 0.0
2015-Jul-18 17:33N 52°25' E 004°46'0 0.0
2015-Jul-18 16:33N 52°25' E 004°46'0 0.0
2015-Jul-18 15:33N 52°25' E 004°46'0 0.0
2015-Jul-18 14:33N 52°25' E 004°46'0 0.0
2015-Jul-18 13:30N 52°25' E 004°46'0 0.0
2015-Jul-18 12:33N 52°25' E 004°46'0 0.0
2015-Jul-18 11:33N 52°25' E 004°46'  
Track history (hours):
 
Tides and Currents Weather Stations Pressure Air Temp Water Temp Dewpoint Dewpoint Depression Visibility Wind Speed Wind Dir Waves Ship Positions

Royal Romance

Last reported at 2015-Jul-28 10:33 UTC. Time now 2015-Jul-28 15:23 UTC.
Position N 36°06' W 007°10'.

Length 93 m; draft 3.9 m.

Type: Pleasure craft. MMSI: 319084100.

Date/timePositionNaut miles runAvg speedWind from/ knotsBaromVisibWave heightAir tempDewpointWater temp
2015-Jul-28 10:33N 36°06' W 007°10'1716.0
2015-Jul-28 09:30N 36°11' W 007°30'1516.2
2015-Jul-28 08:33N 36°15' W 007°48'1616.2
2015-Jul-28 07:33N 36°19' W 008°08'6715.7
2015-Jul-28 03:17N 36°41' W 009°26'1215.7
2015-Jul-28 02:33N 36°51' W 009°33'1616.0
2015-Jul-28 01:33N 37°06' W 009°40'1616.2
2015-Jul-28 00:34N 37°22' W 009°45'1616.2
2015-Jul-27 23:34N 37°37' W 009°51'1616.4
2015-Jul-27 22:33N 37°53' W 009°55'1716.5
2015-Jul-27 21:33N 38°10' W 009°58'1716.6
2015-Jul-27 20:33N 38°26' W 010°02'1616.2
2015-Jul-27 19:33N 38°42' W 010°05'1616.2
2015-Jul-27 18:33N 38°58' W 010°05'1616.5
2015-Jul-27 17:33N 39°14' W 009°59'1716.7
2015-Jul-27 16:32N 39°30' W 009°53'679735358.5
2015-Jul-27 16:21N 01°12' E 103°50'3 4.2
2015-Jul-27 15:33N 01°15' E 103°48'1 0.0
2015-Jul-25 22:29N 01°16' E 103°49'0 0.0
2015-Jul-25 20:10N 01°16' E 103°49'0 0.0
2015-Jul-25 08:17N 01°16' E 103°49'0 0.0
2015-Jul-23 07:03N 01°16' E 103°49'1 0.3
2015-Jul-23 04:26N 01°15' E 103°48'61687065.3
2015-Jul-23 03:33N 58°49' E 005°25'616819809.6
2015-Jul-23 03:15N 01°15' E 103°48'0 0.0
2015-Jul-23 01:28N 01°15' E 103°48'6130267.5
2015-Jul-22 02:33N 54°14' E 005°06'1212.5
2015-Jul-22 01:33N 54°02' E 005°07'1312.6
2015-Jul-22 00:33N 53°50' E 004°59'1313.0
2015-Jul-21 23:32N 53°38' E 004°51'1313.1
2015-Jul-21 22:33N 53°26' E 004°42'1514.0
2015-Jul-21 21:28N 53°12' E 004°33'1314.2
2015-Jul-21 20:33N 53°00' E 004°23'1413.8
2015-Jul-21 19:33N 52°48' E 004°12'1313.4
2015-Jul-21 18:33N 52°35' E 004°07'1212.4
2015-Jul-21 17:34N 52°29' E 004°25'7 7.3
2015-Jul-21 16:34N 52°28' E 004°37'3 3.4
2015-Jul-21 15:33N 52°27' E 004°42'3 3.2
2015-Jul-21 14:33N 52°25' E 004°46'0 0.0
2015-Jul-21 13:33N 52°25' E 004°46'0 0.0
2015-Jul-21 12:30N 52°25' E 004°46'0 0.0
2015-Jul-21 11:33N 52°25' E 004°46'0 0.0
2015-Jul-21 10:33N 52°25' E 004°46'0 0.0
2015-Jul-21 09:33N 52°25' E 004°46'0 0.0
2015-Jul-21 08:33N 52°25' E 004°46'0 0.0
2015-Jul-21 07:33N 52°25' E 004°46'0 0.0
2015-Jul-21 06:33N 52°25' E 004°46'0 0.0
2015-Jul-21 05:33N 52°25' E 004°46'0 0.0
2015-Jul-21 04:33N 52°25' E 004°46'0 0.0
2015-Jul-21 03:30N 52°25' E 004°46'0 0.0
2015-Jul-21 02:33N 52°25' E 004°46'0 0.0
2015-Jul-21 01:33N 52°25' E 004°46'0 0.0
2015-Jul-21 00:33N 52°25' E 004°46'0 0.0
2015-Jul-20 23:33N 52°25' E 004°46'0 0.0
2015-Jul-20 22:33N 52°25' E 004°46'0 0.0
2015-Jul-20 21:33N 52°25' E 004°46'0 0.0
2015-Jul-20 20:33N 52°25' E 004°46'0 0.0
2015-Jul-20 19:33N 52°25' E 004°46'0 0.0
2015-Jul-20 18:33N 52°25' E 004°46'0 0.0
2015-Jul-20 17:33N 52°25' E 004°46'0 0.0
2015-Jul-20 16:33N 52°25' E 004°46'0 0.0
2015-Jul-20 15:33N 52°25' E 004°46'0 0.0
2015-Jul-20 14:33N 52°25' E 004°46'0 0.0
2015-Jul-20 13:33N 52°25' E 004°46'0 0.0
2015-Jul-20 12:30N 52°25' E 004°46'0 0.0
2015-Jul-20 11:33N 52°25' E 004°46'0 0.0
2015-Jul-20 10:33N 52°25' E 004°46'0 0.0
2015-Jul-20 09:33N 52°25' E 004°46'0 0.0
2015-Jul-20 08:33N 52°25' E 004°46'0 0.0
2015-Jul-20 07:33N 52°25' E 004°46'0 0.0
2015-Jul-20 06:33N 52°25' E 004°46'0 0.0
2015-Jul-20 05:33N 52°25' E 004°46'0 0.0
2015-Jul-20 04:33N 52°25' E 004°46'0 0.0
2015-Jul-20 03:27N 52°25' E 004°46'0 0.0
2015-Jul-20 02:33N 52°25' E 004°46'0 0.0
2015-Jul-20 01:33N 52°25' E 004°46'0 0.0
2015-Jul-20 00:33N 52°25' E 004°46'0 0.0
2015-Jul-19 23:33N 52°25' E 004°46'0 0.0
2015-Jul-19 22:33N 52°25' E 004°46'0 0.0
2015-Jul-19 21:33N 52°25' E 004°46'0 0.0
2015-Jul-19 20:33N 52°25' E 004°46'0 0.0
2015-Jul-19 19:33N 52°25' E 004°46'0 0.0
2015-Jul-19 18:33N 52°25' E 004°46'0 0.0
2015-Jul-19 17:33N 52°25' E 004°46'0 0.0
2015-Jul-19 16:33N 52°25' E 004°46'0 0.0
2015-Jul-19 15:33N 52°25' E 004°46'0 0.0
2015-Jul-19 14:33N 52°25' E 004°46'0 0.0
2015-Jul-19 13:33N 52°25' E 004°46'0 0.0
2015-Jul-19 12:33N 52°25' E 004°46'0 0.0
2015-Jul-19 11:33N 52°25' E 004°46'0 0.0
2015-Jul-19 10:33N 52°25' E 004°46'0 0.0
2015-Jul-19 09:33N 52°25' E 004°46'0 0.0
2015-Jul-19 08:33N 52°25' E 004°46'0 0.0
2015-Jul-19 07:33N 52°25' E 004°46'0 0.0
2015-Jul-19 06:27N 52°25' E 004°46'0 0.0
2015-Jul-19 05:33N 52°25' E 004°46'0 0.0
2015-Jul-19 04:33N 52°25' E 004°46'0 0.0
2015-Jul-19 00:30N 52°25' E 004°46'0 0.0
2015-Jul-18 23:33N 52°25' E 004°46'0 0.0
2015-Jul-18 22:33N 52°25' E 004°46'0 0.0
2015-Jul-18 21:33N 52°25' E 004°46'0 0.0
2015-Jul-18 20:33N 52°25' E 004°46'0 0.0
2015-Jul-18 19:33N 52°25' E 004°46'0 0.0
2015-Jul-18 18:33N 52°25' E 004°46'0 0.0
2015-Jul-18 17:33N 52°25' E 004°46'0 0.0
2015-Jul-18 16:33N 52°25' E 004°46'0 0.0
2015-Jul-18 15:33N 52°25' E 004°46'0 0.0
2015-Jul-18 14:33N 52°25' E 004°46'0 0.0
2015-Jul-18 13:30N 52°25' E 004°46'0 0.0
2015-Jul-18 12:33N 52°25' E 004°46'0 0.0
2015-Jul-18 11:33N 52°25' E 004°46'  

Dump ship's entire track history